Time;durP1;ratioP1;P1;durP2;ratioP2;P2;SDS_P1;SDS_P2;PMS_P1;PMS_P2;Temp;Humidity;BMP_temperature;BMP_pressure;BME280_temperature;BME280_humidity;BME280_pressure;Samples;Min_cycle;Max_cycle;Signal;HPM_P1;HPM_P2
2022/09/27 00:00:20;;;;;;;8.30;1.67;;;19.70;64.60;;;;;;5042265;28;20053;-57
2022/09/27 00:02:48;;;;;;;8.63;1.70;;;19.70;64.70;;;;;;5045329;28;20557;-57
2022/09/27 00:05:14;;;;;;;8.10;1.90;;;19.70;64.70;;;;;;5043585;28;20482;-57
2022/09/27 00:07:39;;;;;;;8.57;1.80;;;19.70;64.70;;;;;;5046242;28;20060;-57
2022/09/27 00:10:05;;;;;;;6.82;1.70;;;19.70;64.70;;;;;;5044091;28;20021;-57
2022/09/27 00:12:31;;;;;;;7.50;1.83;;;19.70;64.70;;;;;;5046383;28;20037;-57
2022/09/27 00:14:57;;;;;;;6.30;1.60;;;19.70;64.80;;;;;;5045238;28;20139;-57
2022/09/27 00:17:22;;;;;;;6.53;1.67;;;19.70;64.80;;;;;;5047133;28;20029;-57
2022/09/27 00:19:48;;;;;;;9.75;1.85;;;19.70;64.80;;;;;;5048869;28;20036;-58
2022/09/27 00:22:14;;;;;;;5.80;1.42;;;19.70;65.00;;;;;;5047398;28;20088;-57
2022/09/27 00:24:39;;;;;;;11.23;1.90;;;19.70;65.00;;;;;;5045940;28;20025;-57
2022/09/27 00:27:05;;;;;;;8.88;1.73;;;19.70;65.10;;;;;;5049329;28;20064;-57
2022/09/27 00:29:31;;;;;;;7.47;1.80;;;19.70;65.00;;;;;;5049377;28;20095;-57
2022/09/27 00:31:56;;;;;;;7.25;1.73;;;19.70;65.10;;;;;;5049022;28;20037;-57
2022/09/27 00:34:23;;;;;;;6.68;1.60;;;19.60;65.00;;;;;;5048859;28;20025;-57
2022/09/27 00:36:50;;;;;;;8.15;1.55;;;19.70;65.10;;;;;;5048575;28;20029;-57
2022/09/27 00:39:15;;;;;;;5.72;1.38;;;19.70;65.10;;;;;;5047174;28;20094;-57
2022/09/27 00:41:41;;;;;;;7.70;1.58;;;19.70;65.20;;;;;;5044624;28;20045;-57
2022/09/27 00:44:28;;;;;;;8.00;1.80;;;19.70;65.10;;;;;;5049734;28;20119;-57
2022/09/27 00:47:24;;;;;;;7.18;1.65;;;19.60;65.20;;;;;;5047286;28;20410;-57
2022/09/27 00:49:54;;;;;;;6.80;1.35;;;19.60;65.20;;;;;;5046632;28;20409;-57
2022/09/27 00:52:40;;;;;;;8.68;1.73;;;19.70;65.20;;;;;;5048214;28;20574;-57
2022/09/27 00:55:10;;;;;;;7.88;1.48;;;19.60;65.20;;;;;;5045849;28;20025;-57
2022/09/27 00:57:36;;;;;;;10.20;2.00;;;19.60;65.20;;;;;;5031200;28;20025;-57
2022/09/27 01:00:05;;;;;;;7.03;1.60;;;19.60;65.20;;;;;;5048316;28;20091;-57
2022/09/27 01:02:31;;;;;;;7.85;1.65;;;19.60;65.20;;;;;;5047736;28;20501;-57
2022/09/27 01:04:57;;;;;;;8.25;1.60;;;19.60;65.20;;;;;;5046504;28;20065;-57
2022/09/27 01:07:23;;;;;;;5.63;1.40;;;19.60;65.30;;;;;;5047470;28;20055;-57
2022/09/27 01:09:48;;;;;;;8.07;1.73;;;19.60;65.30;;;;;;5047650;28;20029;-57
2022/09/27 01:12:43;;;;;;;7.00;1.40;;;19.60;65.30;;;;;;5046609;28;20087;-57
2022/09/27 01:15:31;;;;;;;5.10;1.52;;;19.60;65.30;;;;;;5016974;28;20153;-57
2022/09/27 01:18:21;;;;;;;6.38;1.50;;;19.60;65.30;;;;;;4998980;28;20522;-57
2022/09/27 01:21:23;;;;;;;5.85;1.50;;;19.60;65.30;;;;;;5019202;28;20125;-57
2022/09/27 01:24:07;;;;;;;6.00;1.38;;;19.60;65.30;;;;;;5022055;28;20049;-56
2022/09/27 01:26:53;;;;;;;5.13;1.35;;;19.50;65.30;;;;;;5020155;28;20045;-57
2022/09/27 01:29:43;;;;;;;5.82;1.50;;;19.60;65.30;;;;;;5017046;28;20037;-58
2022/09/27 01:32:19;;;;;;;6.78;1.50;;;19.60;65.30;;;;;;5005128;28;20038;-57
2022/09/27 01:35:23;;;;;;;6.07;1.52;;;19.50;65.30;;;;;;5013313;28;20037;-57
2022/09/27 01:37:56;;;;;;;5.07;1.38;;;19.50;65.30;;;;;;4994876;28;20043;-57
2022/09/27 01:40:39;;;;;;;7.50;1.52;;;19.60;65.30;;;;;;4991559;28;20061;-57
2022/09/27 01:43:43;;;;;;;5.50;1.42;;;19.60;65.40;;;;;;4975541;28;20055;-57
2022/09/27 01:46:12;;;;;;;4.82;1.25;;;19.60;65.40;;;;;;4935466;29;20076;-57
2022/09/27 01:48:43;;;;;;;5.95;1.25;;;19.60;65.40;;;;;;4931707;29;20246;-58
2022/09/27 01:51:29;;;;;;;5.05;1.45;;;19.50;65.40;;;;;;4927298;29;20040;-58
2022/09/27 01:53:57;;;;;;;7.13;1.30;;;19.50;65.40;;;;;;4888529;29;20036;-57
2022/09/27 01:56:47;;;;;;;3.55;1.00;;;19.50;65.40;;;;;;4867451;29;20570;-57
2022/09/27 01:59:35;;;;;;;5.13;1.30;;;19.50;65.30;;;;;;4904378;29;20047;-57
2022/09/27 02:02:03;;;;;;;4.50;1.20;;;19.50;65.30;;;;;;4889607;29;20071;-57
2022/09/27 02:04:30;;;;;;;6.28;1.42;;;19.50;65.40;;;;;;4884089;29;20048;-57
2022/09/27 02:07:02;;;;;;;5.60;1.50;;;19.50;65.40;;;;;;4891570;29;20055;-57
2022/09/27 02:09:40;;;;;;;5.65;1.40;;;19.50;65.40;;;;;;4892147;29;20572;-57
2022/09/27 02:12:07;;;;;;;5.80;1.25;;;19.50;65.50;;;;;;4871205;29;20119;-57
2022/09/27 02:14:48;;;;;;;6.97;1.77;;;19.50;65.40;;;;;;4938141;28;20118;-57
2022/09/27 02:17:19;;;;;;;3.00;0.95;;;19.50;65.40;;;;;;5009963;28;20093;-57
2022/09/27 02:19:48;;;;;;;8.70;1.48;;;19.50;65.40;;;;;;5047111;28;20402;-57
2022/09/27 02:22:20;;;;;;;4.43;1.27;;;19.40;65.40;;;;;;5041401;28;20041;-57
2022/09/27 02:24:48;;;;;;;7.15;1.52;;;19.40;65.30;;;;;;5045160;28;20020;-57
2022/09/27 02:27:17;;;;;;;6.05;1.45;;;19.50;65.40;;;;;;5041918;28;20047;-57
2022/09/27 02:29:57;;;;;;;4.82;1.20;;;19.50;65.40;;;;;;5052971;28;20068;-57
2022/09/27 02:32:23;;;;;;;6.55;1.60;;;19.50;65.50;;;;;;5027056;28;20056;-57
2022/09/27 02:34:49;;;;;;;5.28;1.40;;;19.50;65.40;;;;;;5045782;28;20032;-57
2022/09/27 02:37:14;;;;;;;6.60;1.60;;;19.40;65.40;;;;;;5042312;28;20033;-57
2022/09/27 02:39:40;;;;;;;3.83;1.10;;;19.50;65.50;;;;;;5046471;28;20020;-57
2022/09/27 02:42:06;;;;;;;4.90;1.35;;;19.40;65.40;;;;;;5070669;28;20048;-57
2022/09/27 02:44:31;;;;;;;5.95;1.40;;;19.40;65.40;;;;;;5044034;28;20965;-57
2022/09/27 02:47:32;;;;;;;3.95;1.20;;;19.40;65.50;;;;;;5044629;28;20017;-57
2022/09/27 02:50:10;;;;;;;3.35;1.15;;;19.40;65.50;;;;;;5016352;28;20123;-57
2022/09/27 02:53:07;;;;;;;5.80;1.30;;;19.40;65.40;;;;;;5014054;28;20773;-57
2022/09/27 02:55:55;;;;;;;5.07;1.27;;;19.40;65.50;;;;;;5007648;28;20040;-57
2022/09/27 02:58:23;;;;;;;4.45;1.27;;;19.40;65.50;;;;;;5016808;28;20530;-57
2022/09/27 03:01:21;;;;;;;5.10;1.20;;;19.40;65.50;;;;;;5015643;28;20045;-57
2022/09/27 03:03:52;;;;;;;4.55;1.25;;;19.40;65.50;;;;;;4962945;28;20143;-57
2022/09/27 03:06:19;;;;;;;4.18;1.20;;;19.40;65.50;;;;;;4930927;28;20420;-57
2022/09/27 03:08:45;;;;;;;5.18;1.23;;;19.40;65.50;;;;;;4948831;28;20034;-57
2022/09/27 03:11:10;;;;;;;4.75;1.33;;;19.40;65.50;;;;;;4962922;28;20046;-57
2022/09/27 03:13:37;;;;;;;7.03;1.63;;;19.40;65.50;;;;;;4964403;28;20038;-57
2022/09/27 03:16:05;;;;;;;4.18;1.20;;;19.40;65.50;;;;;;4963057;28;20134;-57
2022/09/27 03:18:31;;;;;;;4.95;1.10;;;19.40;65.60;;;;;;4965939;28;20126;-56
2022/09/27 03:20:56;;;;;;;3.83;1.10;;;19.40;65.50;;;;;;4965812;28;20058;-57
2022/09/27 03:23:22;;;;;;;2.72;1.20;;;19.40;65.60;;;;;;4966378;28;20729;-57
2022/09/27 03:25:48;;;;;;;3.75;1.10;;;19.40;65.50;;;;;;4977007;28;20442;-57
2022/09/27 03:28:14;;;;;;;4.72;1.20;;;19.30;65.40;;;;;;4983181;28;20617;-57
2022/09/27 03:30:40;;;;;;;4.22;1.10;;;19.40;65.50;;;;;;4984748;28;20048;-57
2022/09/27 03:33:08;;;;;;;4.65;1.20;;;19.40;65.50;;;;;;4985463;28;20038;-57
2022/09/27 03:35:34;;;;;;;3.63;1.23;;;19.30;65.40;;;;;;4983989;28;20034;-57
2022/09/27 03:37:59;;;;;;;5.45;1.42;;;19.30;65.40;;;;;;4983882;28;20438;-57
2022/09/27 03:40:25;;;;;;;4.55;1.30;;;19.30;65.40;;;;;;5036954;28;20043;-57
2022/09/27 03:42:51;;;;;;;5.68;1.33;;;19.30;65.40;;;;;;5040950;28;20060;-57
2022/09/27 03:45:16;;;;;;;4.32;1.20;;;19.30;65.50;;;;;;5042611;28;20917;-57
2022/09/27 03:47:42;;;;;;;4.47;1.30;;;19.30;65.50;;;;;;5044740;28;20025;-57
2022/09/27 03:50:09;;;;;;;5.78;1.25;;;19.30;65.50;;;;;;5042611;28;20471;-57
2022/09/27 03:52:34;;;;;;;5.60;1.08;;;19.30;65.50;;;;;;5039739;28;20025;-57
2022/09/27 03:55:00;;;;;;;3.55;1.10;;;19.30;65.50;;;;;;5046972;28;20040;-57
2022/09/27 03:57:26;;;;;;;5.00;1.25;;;19.30;65.40;;;;;;5045579;28;20036;-57
2022/09/27 03:59:51;;;;;;;4.22;1.00;;;19.30;65.50;;;;;;5047278;28;20025;-57
2022/09/27 04:02:17;;;;;;;4.47;1.08;;;19.30;65.50;;;;;;5038673;28;20045;-57
2022/09/27 04:04:43;;;;;;;2.75;1.00;;;19.30;65.50;;;;;;5047149;28;20025;-57
2022/09/27 04:07:09;;;;;;;3.38;1.20;;;19.20;65.50;;;;;;5045906;28;20037;-57
2022/09/27 04:09:36;;;;;;;3.83;1.15;;;19.30;65.50;;;;;;5042868;28;20094;-57
2022/09/27 04:12:02;;;;;;;4.40;1.20;;;19.20;65.50;;;;;;5041710;28;20040;-57
2022/09/27 04:14:28;;;;;;;2.78;1.05;;;19.20;65.50;;;;;;5045972;28;20045;-57
2022/09/27 04:16:54;;;;;;;4.30;1.55;;;19.20;66.50;;;;;;5045980;28;20033;-57
2022/09/27 04:19:20;;;;;;;4.65;1.10;;;19.20;65.50;;;;;;5043815;28;20413;-57
2022/09/27 04:21:46;;;;;;;4.80;1.40;;;19.20;65.50;;;;;;5045054;28;20032;-57
2022/09/27 04:24:13;;;;;;;4.13;1.15;;;19.30;65.50;;;;;;5042381;28;20128;-57
2022/09/27 04:26:38;;;;;;;6.20;1.17;;;19.20;65.50;;;;;;5042177;28;20036;-57
2022/09/27 04:29:04;;;;;;;4.93;1.33;;;19.20;65.50;;;;;;5043385;28;20094;-57
2022/09/27 04:31:30;;;;;;;3.03;0.90;;;19.20;65.50;;;;;;5044354;28;20088;-57
2022/09/27 04:33:56;;;;;;;5.30;1.20;;;19.20;65.50;;;;;;5040049;28;20035;-57
2022/09/27 04:36:25;;;;;;;5.60;1.30;;;19.20;65.50;;;;;;5040720;28;20036;-57
2022/09/27 04:38:54;;;;;;;4.20;1.10;;;19.20;65.50;;;;;;5042448;28;20025;-57
2022/09/27 04:41:20;;;;;;;3.22;1.00;;;19.20;65.60;;;;;;5045268;28;20449;-57
2022/09/27 04:43:46;;;;;;;4.40;1.20;;;19.20;65.50;;;;;;5046293;28;20028;-57
2022/09/27 04:46:12;;;;;;;2.65;0.90;;;19.20;65.50;;;;;;5043246;28;20031;-57
2022/09/27 04:48:38;;;;;;;2.75;0.88;;;19.20;65.50;;;;;;5045432;28;20515;-56
2022/09/27 04:51:04;;;;;;;2.15;0.95;;;19.20;65.50;;;;;;5040070;28;20024;-57
2022/09/27 04:53:30;;;;;;;3.13;0.90;;;19.20;65.50;;;;;;5044794;28;20473;-57
2022/09/27 04:55:56;;;;;;;4.65;1.10;;;19.20;65.50;;;;;;5040401;28;20017;-57
2022/09/27 04:58:22;;;;;;;4.32;1.25;;;19.20;65.50;;;;;;5043028;28;20037;-57
2022/09/27 05:00:49;;;;;;;3.72;0.98;;;19.20;65.50;;;;;;5043474;28;20029;-57
2022/09/27 05:03:14;;;;;;;4.35;1.08;;;19.20;65.50;;;;;;5037407;28;21040;-57
2022/09/27 05:05:40;;;;;;;3.33;1.00;;;19.20;65.60;;;;;;5041132;28;20033;-57
2022/09/27 05:08:06;;;;;;;3.72;1.05;;;19.20;65.60;;;;;;5046467;28;20037;-57
2022/09/27 05:10:32;;;;;;;4.63;1.30;;;19.20;65.60;;;;;;5044682;28;20025;-56
2022/09/27 05:12:57;;;;;;;5.53;1.10;;;19.20;66.00;;;;;;5046105;28;20043;-57
2022/09/27 05:15:23;;;;;;;2.95;1.00;;;19.20;66.00;;;;;;5046764;28;20479;-57
2022/09/27 05:17:54;;;;;;;4.65;1.35;;;19.20;66.10;;;;;;5047207;28;20056;-57
2022/09/27 05:20:20;;;;;;;7.50;1.55;;;19.20;66.10;;;;;;5048743;28;20024;-57
2022/09/27 05:22:46;;;;;;;8.38;1.73;;;19.20;66.70;;;;;;5039319;28;20045;-57
2022/09/27 05:25:11;;;;;;;6.70;1.35;;;19.20;66.50;;;;;;5037182;28;20025;-57
2022/09/27 05:27:37;;;;;;;5.63;1.65;;;19.20;67.40;;;;;;5042175;28;20040;-57
2022/09/27 05:30:04;;;;;;;4.38;1.25;;;19.20;67.30;;;;;;5042121;28;20040;-57
2022/09/27 05:32:30;;;;;;;4.18;1.20;;;19.30;66.90;;;;;;5035504;28;20394;-58
2022/09/27 05:34:55;;;;;;;5.88;1.45;;;19.30;67.10;;;;;;5041271;28;20035;-57
2022/09/27 05:37:21;;;;;;;6.13;1.73;;;19.30;67.30;;;;;;5047762;28;20580;-57
2022/09/27 05:39:48;;;;;;;6.43;1.40;;;19.30;67.30;;;;;;5048053;28;20017;-57
2022/09/27 05:42:14;;;;;;;5.97;1.23;;;19.20;67.60;;;;;;5045935;28;20048;-57
2022/09/27 05:44:40;;;;;;;5.18;1.20;;;19.20;67.10;;;;;;5048481;28;20029;-57
2022/09/27 05:47:06;;;;;;;7.22;1.60;;;19.20;67.10;;;;;;5046797;28;20056;-57
2022/09/27 05:49:32;;;;;;;7.07;1.50;;;19.20;67.30;;;;;;5047372;28;20103;-57
2022/09/27 05:51:58;;;;;;;4.85;1.48;;;19.20;67.40;;;;;;5047118;28;20033;-57
2022/09/27 05:54:23;;;;;;;5.45;1.17;;;19.20;67.40;;;;;;5047083;28;20025;-57
2022/09/27 05:56:50;;;;;;;7.22;1.60;;;19.20;67.40;;;;;;5047783;28;20533;-57
2022/09/27 05:59:15;;;;;;;6.80;1.42;;;19.20;67.40;;;;;;5044946;28;20521;-57
2022/09/27 06:01:41;;;;;;;6.40;1.40;;;19.20;67.30;;;;;;5047302;28;20095;-57
2022/09/27 06:04:07;;;;;;;6.43;1.80;;;19.20;67.40;;;;;;5047558;28;20508;-57
2022/09/27 06:06:35;;;;;;;12.98;1.70;;;19.20;67.40;;;;;;5046598;28;20036;-57
2022/09/27 06:09:01;;;;;;;6.53;1.50;;;19.10;67.30;;;;;;5046859;28;20106;-57
2022/09/27 06:11:27;;;;;;;7.95;1.85;;;19.10;67.30;;;;;;5046715;28;20048;-57
2022/09/27 06:13:53;;;;;;;7.32;1.60;;;19.10;67.30;;;;;;5047638;28;20033;-57
2022/09/27 06:16:18;;;;;;;5.85;1.50;;;19.10;67.40;;;;;;5047252;28;20032;-57
2022/09/27 06:18:44;;;;;;;9.10;1.58;;;19.10;67.30;;;;;;5046192;28;20037;-57
2022/09/27 06:21:10;;;;;;;7.13;1.52;;;19.10;67.30;;;;;;5047062;28;20611;-57
2022/09/27 06:23:35;;;;;;;7.00;1.70;;;19.10;67.30;;;;;;5046749;28;20037;-57
2022/09/27 06:26:05;;;;;;;9.40;1.65;;;19.10;67.30;;;;;;5046760;28;20065;-57
2022/09/27 06:28:31;;;;;;;6.38;1.85;;;19.10;67.30;;;;;;5046512;28;20028;-58
2022/09/27 06:30:59;;;;;;;7.60;1.45;;;19.10;67.30;;;;;;5045433;28;20021;-57
2022/09/27 06:33:26;;;;;;;7.07;1.58;;;19.10;67.20;;;;;;5043113;28;20416;-57
2022/09/27 06:35:52;;;;;;;7.07;1.48;;;19.10;67.30;;;;;;5046877;28;20057;-57
2022/09/27 06:38:20;;;;;;;6.25;1.35;;;19.10;67.30;;;;;;5045366;28;20664;-57
2022/09/27 06:40:45;;;;;;;7.88;1.52;;;19.10;67.20;;;;;;5042328;28;20039;-57
2022/09/27 06:43:13;;;;;;;7.97;1.67;;;19.00;67.20;;;;;;5046519;28;20033;-57
2022/09/27 06:45:38;;;;;;;6.93;1.50;;;19.10;67.20;;;;;;5044891;28;20531;-57
2022/09/27 06:48:06;;;;;;;6.75;1.80;;;19.10;67.20;;;;;;5046629;28;20028;-57
2022/09/27 06:50:33;;;;;;;7.18;1.50;;;19.10;67.10;;;;;;5045149;28;20040;-57
2022/09/27 06:52:58;;;;;;;7.00;1.58;;;19.10;67.10;;;;;;5045290;28;20036;-57
2022/09/27 06:55:24;;;;;;;5.63;1.40;;;19.10;67.10;;;;;;5046489;28;20460;-57
2022/09/27 07:00:46;;;;;;;5.45;1.30;;;19.00;67.00;;;;;;5043992;28;20090;-57
2022/09/27 07:03:13;;;;;;;9.18;1.55;;;19.10;67.00;;;;;;5044283;28;20072;-57
2022/09/27 07:05:40;;;;;;;5.85;1.75;;;19.10;67.00;;;;;;5046806;28;20040;-57
2022/09/27 07:08:06;;;;;;;5.13;1.27;;;19.00;67.00;;;;;;5045740;28;20104;-57
2022/09/27 07:10:33;;;;;;;6.20;1.25;;;19.00;67.00;;;;;;5045167;28;20096;-57
2022/09/27 07:13:09;;;;;;;6.07;1.30;;;19.00;67.00;;;;;;5046893;28;20436;-57
2022/09/27 07:15:39;;;;;;;8.75;1.52;;;19.00;66.90;;;;;;5045720;28;20449;-57
2022/09/27 07:18:05;;;;;;;6.22;1.55;;;19.00;67.00;;;;;;5044989;28;20044;-57
2022/09/27 07:20:31;;;;;;;7.10;1.42;;;19.00;67.00;;;;;;5046200;28;20029;-57
2022/09/27 07:22:57;;;;;;;6.93;1.92;;;19.00;67.00;;;;;;5045312;28;20044;-57
2022/09/27 07:25:23;;;;;;;4.75;1.40;;;19.00;66.90;;;;;;5045374;28;20028;-57
2022/09/27 07:27:49;;;;;;;5.80;1.20;;;19.00;67.00;;;;;;5045022;28;20041;-57
2022/09/27 07:30:15;;;;;;;5.57;1.52;;;19.00;66.90;;;;;;5046260;28;20082;-57
2022/09/27 07:32:42;;;;;;;5.57;1.27;;;19.00;67.00;;;;;;5046372;28;20051;-57
2022/09/27 07:35:09;;;;;;;11.35;1.60;;;19.00;66.80;;;;;;5045708;28;20033;-57
2022/09/27 07:37:35;;;;;;;4.53;1.30;;;19.00;67.00;;;;;;5045729;28;20525;-57
2022/09/27 07:40:01;;;;;;;7.93;1.40;;;19.00;66.90;;;;;;5045434;28;20060;-57
2022/09/27 07:42:27;;;;;;;5.93;1.38;;;19.00;66.90;;;;;;5042016;28;20120;-57
2022/09/27 07:44:54;;;;;;;6.35;1.40;;;19.00;66.90;;;;;;5045871;28;20029;-57
2022/09/27 07:47:22;;;;;;;5.97;1.38;;;18.90;66.90;;;;;;5046309;28;20029;-57
2022/09/27 07:49:48;;;;;;;7.68;1.70;;;19.00;66.90;;;;;;5044682;28;20108;-57
2022/09/27 07:52:14;;;;;;;8.90;1.92;;;19.00;66.90;;;;;;5044985;28;20105;-57
2022/09/27 07:54:40;;;;;;;5.93;1.20;;;19.00;66.80;;;;;;5045042;28;20035;-57
2022/09/27 07:57:05;;;;;;;7.38;1.65;;;19.00;66.80;;;;;;5045541;28;20025;-57
2022/09/27 07:59:31;;;;;;;6.30;1.52;;;19.00;66.80;;;;;;5044620;28;20120;-57
2022/09/27 08:01:56;;;;;;;4.65;1.13;;;19.00;66.80;;;;;;5045454;28;20045;-57
2022/09/27 08:04:22;;;;;;;4.00;1.30;;;19.00;66.80;;;;;;5046673;28;20025;-58
2022/09/27 08:06:48;;;;;;;4.95;1.20;;;19.00;66.80;;;;;;5045635;28;20025;-57
2022/09/27 08:09:13;;;;;;;6.90;1.33;;;19.00;66.80;;;;;;5045248;28;20025;-57
2022/09/27 08:11:39;;;;;;;6.90;1.75;;;19.00;66.80;;;;;;5045986;28;20044;-57
2022/09/27 08:14:05;;;;;;;6.53;1.42;;;19.00;66.70;;;;;;5045240;28;20025;-57
2022/09/27 08:16:33;;;;;;;6.47;1.63;;;19.00;66.70;;;;;;5045197;28;20021;-57
2022/09/27 08:18:58;;;;;;;6.78;1.33;;;19.00;66.70;;;;;;5044362;28;20025;-57
2022/09/27 08:21:24;;;;;;;5.10;1.40;;;19.00;66.80;;;;;;5045103;28;20306;-57
2022/09/27 08:23:50;;;;;;;7.20;1.52;;;19.00;66.70;;;;;;5045340;28;20029;-57
2022/09/27 08:26:15;;;;;;;7.78;1.60;;;19.00;66.70;;;;;;5044767;28;20029;-57
2022/09/27 08:28:41;;;;;;;6.97;1.38;;;19.00;66.60;;;;;;5045054;28;20025;-57
2022/09/27 08:31:07;;;;;;;6.03;1.45;;;19.00;66.60;;;;;;5044857;28;20095;-57
2022/09/27 08:33:32;;;;;;;5.97;1.20;;;19.00;66.70;;;;;;5045004;28;20071;-57
2022/09/27 08:35:58;;;;;;;5.65;1.58;;;19.00;66.80;;;;;;5045567;28;20133;-57
2022/09/27 08:38:24;;;;;;;5.85;1.30;;;19.00;66.70;;;;;;5044227;28;20668;-55
2022/09/27 08:40:56;;;;;;;6.43;1.50;;;19.00;66.70;;;;;;5046229;28;20079;-57
2022/09/27 08:43:27;;;;;;;7.03;1.30;;;19.10;66.90;;;;;;5044423;28;20036;-57
2022/09/27 08:46:21;;;;;;;7.05;1.40;;;19.10;67.10;;;;;;5047663;28;20572;-58
2022/09/27 08:48:50;;;;;;;10.85;1.58;;;19.10;67.10;;;;;;5046479;28;20060;-57
2022/09/27 08:51:16;;;;;;;7.40;1.73;;;19.10;67.30;;;;;;5045525;28;20401;-57
2022/09/27 08:53:54;;;;;;;7.38;1.42;;;19.10;67.30;;;;;;5045781;28;20026;-58
2022/09/27 08:56:20;;;;;;;6.97;1.60;;;19.10;67.10;;;;;;5047370;28;20032;-57
2022/09/27 08:58:50;;;;;;;4.97;1.30;;;19.10;67.10;;;;;;5030796;28;20025;-57
2022/09/27 09:01:17;;;;;;;6.05;1.52;;;19.10;67.20;;;;;;5046861;28;20045;-57
2022/09/27 09:03:54;;;;;;;4.57;1.33;;;19.10;67.20;;;;;;5046904;28;20045;-57
2022/09/27 09:06:44;;;;;;;5.20;1.20;;;19.10;67.10;;;;;;5047028;28;20041;-57
2022/09/27 09:09:23;;;;;;;6.72;1.45;;;19.10;67.10;;;;;;5043995;28;20440;-57
2022/09/27 09:14:46;;;;;;;5.00;1.35;;;19.20;67.20;;;;;;5045288;28;20458;-57
2022/09/27 09:17:35;;;;;;;6.43;1.40;;;19.20;67.30;;;;;;5045027;28;20029;-57
2022/09/27 09:20:26;;;;;;;8.15;1.30;;;19.20;67.30;;;;;;5044436;28;20064;-57
2022/09/27 09:22:57;;;;;;;4.78;1.13;;;19.20;67.30;;;;;;5045670;28;20040;-56
2022/09/27 09:25:44;;;;;;;6.68;1.52;;;19.20;67.30;;;;;;5046658;28;20043;-57
2022/09/27 09:28:38;;;;;;;5.22;1.40;;;19.20;67.30;;;;;;5041260;28;20029;-56
2022/09/27 09:31:09;;;;;;;6.43;1.63;;;19.20;67.40;;;;;;5043914;28;20025;-57
2022/09/27 09:33:40;;;;;;;7.68;1.85;;;19.20;67.40;;;;;;5046056;28;20099;-57
2022/09/27 09:36:18;;;;;;;6.35;1.48;;;19.20;67.20;;;;;;5048060;28;20017;-57
2022/09/27 09:38:49;;;;;;;5.68;1.55;;;19.20;67.20;;;;;;5044875;28;20024;-56
2022/09/27 09:41:32;;;;;;;5.10;1.27;;;19.20;67.30;;;;;;5026797;28;20033;-57
2022/09/27 09:44:02;;;;;;;4.57;1.05;;;19.20;67.30;;;;;;5029273;28;20040;-57
2022/09/27 09:46:38;;;;;;;6.78;1.52;;;19.30;67.40;;;;;;5046649;28;20021;-56
2022/09/27 09:49:16;;;;;;;6.25;1.50;;;19.20;67.40;;;;;;5050635;28;20029;-57
2022/09/27 09:51:46;;;;;;;6.43;1.60;;;19.30;67.40;;;;;;5046506;28;20021;-57
2022/09/27 09:54:23;;;;;;;6.40;1.40;;;19.30;67.50;;;;;;5044780;28;20033;-57
2022/09/27 09:57:00;;;;;;;7.80;1.90;;;19.30;67.60;;;;;;5029171;28;20048;-57
2022/09/27 09:59:34;;;;;;;6.80;1.40;;;19.30;67.40;;;;;;5046451;28;20032;-56
2022/09/27 10:02:11;;;;;;;7.97;1.80;;;19.40;67.40;;;;;;5042003;28;20086;-57
2022/09/27 10:04:37;;;;;;;7.78;1.55;;;19.40;67.10;;;;;;5042767;28;20017;-57
2022/09/27 10:07:04;;;;;;;6.07;0.98;;;19.40;67.10;;;;;;5042981;28;20056;-57
2022/09/27 10:09:29;;;;;;;6.78;1.50;;;19.40;67.20;;;;;;5045482;28;20024;-57
2022/09/27 10:11:55;;;;;;;7.30;1.77;;;19.50;67.00;;;;;;5044488;28;20078;-57
2022/09/27 10:14:21;;;;;;;6.88;1.25;;;19.50;67.00;;;;;;5040175;28;20397;-57
2022/09/27 10:16:48;;;;;;;5.47;1.30;;;19.50;67.00;;;;;;5042055;28;20028;-57
2022/09/27 10:19:21;;;;;;;5.28;1.35;;;19.50;67.00;;;;;;5043676;28;20048;-57
2022/09/27 10:21:48;;;;;;;5.30;1.33;;;19.50;67.10;;;;;;5043751;28;20045;-57
2022/09/27 10:24:15;;;;;;;5.78;1.33;;;19.50;67.10;;;;;;5045899;28;20032;-56
2022/09/27 10:26:42;;;;;;;3.78;1.23;;;19.50;67.10;;;;;;5043581;28;20032;-57
2022/09/27 10:29:23;;;;;;;9.52;1.70;;;19.60;67.10;;;;;;5045804;28;20498;-56
2022/09/27 10:31:49;;;;;;;8.25;1.52;;;19.50;67.20;;;;;;5046411;28;20064;-57
2022/09/27 10:34:33;;;;;;;6.63;1.48;;;19.50;67.10;;;;;;5045079;28;20048;-57
2022/09/27 10:37:03;;;;;;;5.78;1.40;;;19.50;67.20;;;;;;5044517;28;20034;-57
2022/09/27 10:39:29;;;;;;;6.53;1.40;;;19.60;67.10;;;;;;5046500;28;20493;-57
2022/09/27 10:41:54;;;;;;;4.40;1.40;;;19.50;68.10;;;;;;5046657;28;20036;-57
2022/09/27 10:44:31;;;;;;;6.60;1.50;;;19.60;67.10;;;;;;5046149;28;20025;-57
2022/09/27 10:47:07;;;;;;;7.18;1.40;;;19.60;67.10;;;;;;5045784;28;20025;-56
2022/09/27 10:49:37;;;;;;;6.07;1.45;;;19.60;67.20;;;;;;5043127;28;20469;-57
2022/09/27 10:52:12;;;;;;;7.43;1.58;;;19.60;67.20;;;;;;5050598;28;20485;-57
2022/09/27 10:54:39;;;;;;;4.70;1.33;;;19.60;67.10;;;;;;5046293;28;20024;-57
2022/09/27 10:57:31;;;;;;;7.00;1.90;;;19.60;67.10;;;;;;5041681;28;20140;-57
2022/09/27 11:00:06;;;;;;;4.78;1.33;;;19.60;68.10;;;;;;5040712;28;20033;-57
2022/09/27 11:02:35;;;;;;;5.85;1.55;;;19.60;67.00;;;;;;5044746;28;20497;-57
2022/09/27 11:05:13;;;;;;;4.85;1.27;;;19.60;67.10;;;;;;5035513;28;20098;-57
2022/09/27 11:07:51;;;;;;;5.18;1.30;;;19.60;67.10;;;;;;5042334;28;20036;-57
2022/09/27 11:10:27;;;;;;;5.05;1.50;;;19.60;67.10;;;;;;5041584;28;20025;-57
2022/09/27 11:13:18;;;;;;;4.68;1.20;;;19.60;67.10;;;;;;5042940;28;20528;-58
2022/09/27 11:16:05;;;;;;;3.88;1.40;;;19.70;67.00;;;;;;5041422;28;20060;-57
2022/09/27 11:18:53;;;;;;;6.45;1.60;;;19.70;67.10;;;;;;5041878;28;20028;-56
2022/09/27 11:21:41;;;;;;;6.25;1.52;;;19.60;67.00;;;;;;5045535;28;20032;-57
2022/09/27 11:24:31;;;;;;;5.30;1.20;;;19.70;67.10;;;;;;5042893;28;20036;-57
2022/09/27 11:27:38;;;;;;;6.22;1.50;;;19.70;67.00;;;;;;5043577;28;20104;-57
2022/09/27 11:30:07;;;;;;;6.47;1.65;;;19.70;67.20;;;;;;4997579;28;20041;-57
2022/09/27 11:32:57;;;;;;;4.80;1.23;;;19.70;67.10;;;;;;4996805;28;20608;-57
2022/09/27 11:35:46;;;;;;;5.32;1.40;;;19.70;67.10;;;;;;4919878;29;20039;-57
2022/09/27 11:38:30;;;;;;;4.07;1.20;;;19.70;67.10;;;;;;4896137;29;20027;-57
2022/09/27 11:41:02;;;;;;;5.47;1.35;;;19.70;67.00;;;;;;4925427;29;20040;-57
2022/09/27 11:43:42;;;;;;;4.07;1.20;;;19.70;67.10;;;;;;4925131;29;20052;-57
2022/09/27 11:46:30;;;;;;;5.63;1.48;;;19.70;67.00;;;;;;4908728;29;20509;-57
2022/09/27 11:49:08;;;;;;;5.80;1.50;;;19.70;67.00;;;;;;4924118;29;20047;-57
2022/09/27 11:51:39;;;;;;;5.15;1.13;;;19.80;67.00;;;;;;4924959;29;20039;-57
2022/09/27 11:54:31;;;;;;;4.13;1.20;;;19.80;66.90;;;;;;4925499;29;20402;-57
2022/09/27 11:57:05;;;;;;;6.35;1.50;;;19.80;66.70;;;;;;4924755;29;20044;-57
2022/09/27 11:59:46;;;;;;;6.32;1.40;;;19.80;66.70;;;;;;4910513;29;20048;-57
2022/09/27 12:02:34;;;;;;;6.25;1.17;;;19.80;66.80;;;;;;4923436;29;20189;-57
2022/09/27 12:05:27;;;;;;;5.35;1.42;;;19.80;66.80;;;;;;4913015;29;20036;-57
2022/09/27 12:08:18;;;;;;;6.43;1.90;;;19.80;66.60;;;;;;4959816;28;20594;-57
2022/09/27 12:10:47;;;;;;;5.57;1.40;;;19.80;66.80;;;;;;4946392;28;20034;-57
2022/09/27 12:13:13;;;;;;;8.00;1.60;;;19.80;67.00;;;;;;5019776;28;20099;-57
2022/09/27 12:15:41;;;;;;;4.00;1.35;;;19.80;66.90;;;;;;5043768;28;20171;-57
2022/09/27 12:18:30;;;;;;;5.10;1.40;;;19.80;67.00;;;;;;5030744;28;20025;-57
2022/09/27 12:20:58;;;;;;;3.50;1.17;;;19.80;67.00;;;;;;5043094;28;20117;-57
2022/09/27 12:23:47;;;;;;;8.30;1.70;;;19.80;66.80;;;;;;5046872;28;20109;-57
2022/09/27 12:26:16;;;;;;;5.00;1.13;;;19.90;66.80;;;;;;5042625;28;20033;-57
2022/09/27 12:28:53;;;;;;;5.78;1.35;;;19.90;66.80;;;;;;5047549;28;20535;-57
2022/09/27 12:31:24;;;;;;;7.78;1.48;;;19.90;66.90;;;;;;5048685;28;20067;-57
2022/09/27 12:34:14;;;;;;;5.38;1.45;;;19.90;67.00;;;;;;5048220;28;20037;-57
2022/09/27 12:36:43;;;;;;;6.03;0.95;;;19.90;66.90;;;;;;5046419;28;20397;-57
2022/09/27 12:39:32;;;;;;;5.13;1.45;;;19.90;67.00;;;;;;5046155;28;21952;-57
2022/09/27 12:42:00;;;;;;;5.32;1.67;;;19.90;66.90;;;;;;5039293;28;20045;-57
2022/09/27 12:44:31;;;;;;;3.42;1.08;;;19.90;67.00;;;;;;5047265;28;20563;-57
2022/09/27 12:47:15;;;;;;;6.18;1.23;;;19.90;67.30;;;;;;5049414;28;20092;-57
2022/09/27 12:49:56;;;;;;;7.90;1.45;;;19.90;66.90;;;;;;5044604;28;20032;-57
2022/09/27 12:52:24;;;;;;;9.57;1.30;;;19.90;66.90;;;;;;5046375;28;20013;-57
2022/09/27 12:55:26;;;;;;;5.53;1.50;;;19.90;66.90;;;;;;5047067;28;20067;-57
2022/09/27 12:58:14;;;;;;;8.98;1.38;;;19.90;67.00;;;;;;5046572;28;20033;-57
2022/09/27 13:00:51;;;;;;;5.00;1.00;;;19.90;66.90;;;;;;5045208;28;20094;-58
2022/09/27 13:03:26;;;;;;;7.75;1.33;;;19.90;67.20;;;;;;5043507;28;20645;-57
2022/09/27 13:05:59;;;;;;;4.05;1.10;;;19.90;67.00;;;;;;5047326;28;20029;-57
2022/09/27 13:08:33;;;;;;;4.50;1.02;;;19.90;66.80;;;;;;5046312;28;20110;-57
2022/09/27 13:11:03;;;;;;;;;;;19.90;66.90;;;;;;5048381;28;20025;-57
2022/09/27 13:13:29;;;;;;;7.43;1.13;;;20.00;66.80;;;;;;5047561;28;19909;-57
2022/09/27 13:15:57;;;;;;;6.03;1.15;;;19.90;66.70;;;;;;5029839;28;20591;-57